Time;durP1;ratioP1;P1;durP2;ratioP2;P2;SDS_P1;SDS_P2;PMS_P1;PMS_P2;Temp;Humidity;BMP_temperature;BMP_pressure;BME280_temperature;BME280_humidity;BME280_pressure;Samples;Min_cycle;Max_cycle;Signal;HPM_P1;HPM_P2
2023/01/21 00:02:57;;;;;;;61.50;27.57;;;;;;;-1.20;100.00;102714.94;10503195;28;20044;-79
2023/01/21 00:07:57;;;;;;;55.20;25.77;;;;;;;-1.30;100.00;102689.69;10500977;28;20037;-79
2023/01/21 00:12:58;;;;;;;57.80;25.67;;;;;;;-1.18;100.00;102718.34;10482065;28;20439;-79
2023/01/21 00:17:58;;;;;;;50.87;22.67;;;;;;;-1.23;100.00;102723.31;10480996;28;20359;-77
2023/01/21 00:22:59;;;;;;;53.93;25.20;;;;;;;-1.31;100.00;102726.66;10486806;28;20419;-78
2023/01/21 00:27:59;;;;;;;57.57;26.97;;;;;;;-1.33;100.00;102730.50;10503126;28;20067;-78
2023/01/21 00:32:59;;;;;;;63.40;28.47;;;;;;;-2.15;100.00;102604.16;10502501;28;20029;-73
2023/01/21 00:38:00;;;;;;;63.17;26.10;;;;;;;-1.35;100.00;102748.69;10503297;28;20047;-79
2023/01/21 00:43:00;;;;;;;61.53;26.83;;;;;;;-1.34;100.00;102758.50;10502430;28;20024;-79
2023/01/21 00:48:01;;;;;;;65.27;28.97;;;;;;;-1.34;100.00;102759.38;10500408;28;20045;-79
2023/01/21 00:53:01;;;;;;;69.80;26.90;;;;;;;-1.32;100.00;102764.66;10499573;28;20068;-79
2023/01/21 00:58:02;;;;;;;60.53;25.97;;;;;;;-1.25;100.00;102782.03;10499429;28;20041;-80
2023/01/21 01:03:02;;;;;;;60.83;26.37;;;;;;;-1.24;100.00;102773.81;10498917;28;20047;-80
2023/01/21 01:08:03;;;;;;;70.03;29.87;;;;;;;-1.24;100.00;102781.91;10483110;28;20052;-79
2023/01/21 01:13:03;;;;;;;67.47;28.00;;;;;;;-1.24;100.00;102790.03;10498920;28;20056;-80
2023/01/21 01:18:04;;;;;;;59.77;25.70;;;;;;;-1.20;100.00;102796.00;10480753;28;20048;-80
2023/01/21 01:23:04;;;;;;;62.80;26.87;;;;;;;-1.30;100.00;102781.56;10477382;28;20108;-74
2023/01/21 01:28:05;;;;;;;63.43;28.23;;;;;;;-1.18;100.00;102804.84;10498750;28;20048;-80
2023/01/21 01:33:05;;;;;;;58.03;25.40;;;;;;;-1.14;100.00;102800.91;10448342;28;20062;-80
2023/01/21 01:38:08;;;;;;;65.53;25.87;;;;;;;-1.10;100.00;102807.75;10500498;28;20029;-81
2023/01/21 01:43:18;;;;;;;62.27;26.80;;;;;;;-1.07;100.00;102812.91;10499761;28;20033;-81
2023/01/21 01:48:26;;;;;;;58.53;26.93;;;;;;;-1.15;100.00;102798.34;10498922;28;20052;-80
2023/01/21 01:53:26;;;;;;;62.60;26.50;;;;;;;-1.38;100.00;102809.25;10497156;28;20060;-80
2023/01/21 01:58:27;;;;;;;63.43;25.70;;;;;;;-1.52;100.00;102818.50;10497146;28;20036;-80
2023/01/21 02:03:43;;;;;;;60.00;25.97;;;;;;;-1.66;100.00;102819.63;10496827;28;20041;-79
2023/01/21 02:08:44;;;;;;;;;;;;;;;-1.66;100.00;102821.47;10482650;28;20119;-80
2023/01/21 02:13:52;;;;;;;72.13;27.60;;;;;;;-1.62;100.00;102817.53;10499125;28;20003;-80
2023/01/21 02:19:18;;;;;;;72.87;28.13;;;;;;;-1.57;100.00;102828.81;10498029;28;20045;-79
2023/01/21 02:24:30;;;;;;;84.50;31.97;;;;;;;-1.49;100.00;102834.47;10486791;28;20040;-81
2023/01/21 02:29:46;;;;;;;81.90;31.03;;;;;;;-1.38;100.00;102851.63;10497530;28;20041;-80
2023/01/21 02:35:07;;;;;;;83.50;31.73;;;;;;;-1.36;100.00;102846.94;10498050;28;20041;-81
2023/01/21 02:40:11;;;;;;;77.57;29.40;;;;;;;-1.50;100.00;102859.75;10499104;28;20271;-80
2023/01/21 02:45:35;;;;;;;85.80;30.90;;;;;;;-1.51;100.00;102874.25;10498969;28;20074;-80
2023/01/21 02:50:42;;;;;;;89.07;30.93;;;;;;;-1.39;100.00;102882.31;10478809;28;20433;-80
2023/01/21 02:55:42;;;;;;;85.90;31.17;;;;;;;-1.30;100.00;102876.13;10479337;28;20037;-81
2023/01/21 03:00:50;;;;;;;90.03;31.87;;;;;;;-1.22;100.00;102879.94;10495116;28;20040;-79
2023/01/21 03:06:18;;;;;;;84.43;31.10;;;;;;;-1.10;100.00;102883.44;10498608;28;20033;-80
2023/01/21 03:11:19;;;;;;;77.10;29.40;;;;;;;-1.15;100.00;102872.19;10497941;28;20594;-80
2023/01/21 03:17:04;;;;;;;77.07;30.33;;;;;;;-1.09;100.00;102885.19;10471756;28;20071;-80
2023/01/21 03:21:46;;;;;;;79.20;29.90;;;;;;;-1.11;100.00;102870.94;10461572;28;20045;-80
2023/01/21 03:26:48;;;;;;;83.40;30.77;;;;;;;-1.03;100.00;102891.94;10466283;28;20040;-80
2023/01/21 03:31:55;;;;;;;75.60;30.23;;;;;;;-1.29;100.00;102848.16;10485058;28;20067;-80
2023/01/21 03:36:57;;;;;;;82.80;28.77;;;;;;;-1.06;100.00;102889.47;10456503;28;20182;-82
2023/01/21 03:41:57;;;;;;;80.40;30.67;;;;;;;-1.13;100.00;102891.81;10469606;28;20033;-80
2023/01/21 03:47:05;;;;;;;86.87;30.47;;;;;;;-1.12;100.00;102896.22;10474310;28;20053;-80
2023/01/21 03:52:05;;;;;;;78.33;31.03;;;;;;;-1.15;100.00;102899.22;10495906;28;20029;-81
2023/01/21 03:57:06;;;;;;;84.47;30.83;;;;;;;-1.09;100.00;102911.38;10453559;28;20052;-80
2023/01/21 04:02:06;;;;;;;78.70;31.67;;;;;;;-1.08;100.00;102896.84;10460779;28;20037;-80
2023/01/21 04:07:08;;;;;;;79.93;29.23;;;;;;;-1.09;100.00;102901.41;10468030;28;20040;-81
2023/01/21 04:12:08;;;;;;;82.20;30.77;;;;;;;-1.04;100.00;102904.56;10501880;28;20502;-81
2023/01/21 04:17:09;;;;;;;89.27;32.33;;;;;;;-0.97;100.00;102898.66;10502963;28;20082;-81
2023/01/21 04:22:09;;;;;;;66.87;29.83;;;;;;;-1.07;100.00;102915.66;10503054;28;20043;-81
2023/01/21 04:27:10;;;;;;;79.80;30.00;;;;;;;-1.13;100.00;102918.84;10483636;28;20498;-81
2023/01/21 04:32:10;;;;;;;87.20;31.03;;;;;;;-1.08;100.00;102919.31;10503035;28;20477;-81
2023/01/21 04:37:10;;;;;;;81.53;29.50;;;;;;;-1.07;100.00;102921.06;10500829;28;20419;-78
2023/01/21 04:42:11;;;;;;;76.27;31.17;;;;;;;-1.02;100.00;102934.19;10483298;28;20472;-80
2023/01/21 04:47:11;;;;;;;83.77;30.33;;;;;;;-0.89;100.00;102955.66;10476856;28;20045;-81
2023/01/21 04:52:12;;;;;;;84.90;31.03;;;;;;;-0.83;100.00;102955.13;10490427;28;20039;-80
2023/01/21 04:57:12;;;;;;;89.53;31.87;;;;;;;-0.79;100.00;102956.59;10500235;28;20033;-80
2023/01/21 05:02:13;;;;;;;79.90;29.83;;;;;;;-0.75;100.00;102966.16;10500306;28;20043;-81
2023/01/21 05:07:13;;;;;;;88.47;30.77;;;;;;;-0.75;100.00;102968.88;10500582;28;20036;-81
2023/01/21 05:12:14;;;;;;;79.00;29.57;;;;;;;-0.74;100.00;102951.69;10501091;28;20048;-80
2023/01/21 05:17:15;;;;;;;78.60;32.17;;;;;;;-0.74;100.00;102964.34;10500312;28;20446;-80
2023/01/21 05:22:15;;;;;;;77.33;29.83;;;;;;;-0.80;100.00;102954.91;10497742;28;20044;-81
2023/01/21 05:27:18;;;;;;;74.53;30.17;;;;;;;-0.87;100.00;102956.38;10499741;28;20109;-80
2023/01/21 05:32:19;;;;;;;84.63;29.13;;;;;;;-0.78;100.00;102968.31;10498327;28;20040;-80
2023/01/21 05:37:19;;;;;;;73.20;29.43;;;;;;;-0.78;100.00;102979.97;10498102;28;20032;-79
2023/01/21 05:42:20;;;;;;;82.27;31.50;;;;;;;-0.82;100.00;102990.19;10498918;28;20028;-79
2023/01/21 05:47:20;;;;;;;74.57;31.77;;;;;;;-0.85;100.00;102997.66;10499601;28;20048;-81
2023/01/21 05:52:21;;;;;;;85.83;31.43;;;;;;;-0.82;100.00;103002.84;10478103;28;20037;-81
2023/01/21 05:57:21;;;;;;;82.07;29.80;;;;;;;-0.80;100.00;103011.69;10456513;28;20071;-81
2023/01/21 06:02:22;;;;;;;75.87;29.13;;;;;;;-0.76;100.00;103026.69;10476188;28;20028;-82
2023/01/21 06:07:22;;;;;;;81.80;30.57;;;;;;;-0.73;100.00;103030.97;10496044;28;20032;-81
2023/01/21 06:12:23;;;;;;;73.13;28.57;;;;;;;-0.71;100.00;103040.66;10499513;28;20455;-82
2023/01/21 06:17:23;;;;;;;82.87;29.97;;;;;;;-0.72;100.00;103038.97;10498605;28;20044;-81
2023/01/21 06:22:24;;;;;;;81.17;29.83;;;;;;;-0.72;100.00;103043.53;10463552;28;20036;-81
2023/01/21 06:27:24;;;;;;;78.87;31.33;;;;;;;-0.71;100.00;103056.91;10472780;28;20044;-81
2023/01/21 06:32:25;;;;;;;71.17;28.60;;;;;;;-0.67;100.00;103060.22;10438088;28;20055;-70
2023/01/21 06:37:25;;;;;;;81.70;30.97;;;;;;;-0.67;100.00;103057.50;10461905;28;20028;-80
2023/01/21 06:42:25;;;;;;;86.40;31.73;;;;;;;-0.65;100.00;103071.78;10495186;28;20025;-81
2023/01/21 06:47:26;;;;;;;87.63;33.53;;;;;;;-0.70;100.00;103064.03;10496147;28;20043;-81
2023/01/21 06:52:26;;;;;;;72.77;30.37;;;;;;;-0.92;100.00;103062.22;10497569;28;20059;-82
2023/01/21 06:57:27;;;;;;;74.53;30.10;;;;;;;-1.29;100.00;103051.69;10457193;28;20455;-82
2023/01/21 07:02:27;;;;;;;81.23;29.13;;;;;;;-1.44;100.00;103083.47;10454722;28;20029;-82
2023/01/21 07:07:28;;;;;;;74.93;30.43;;;;;;;-1.70;100.00;103084.66;10495560;28;20044;-81
2023/01/21 07:12:29;;;;;;;77.07;29.57;;;;;;;-1.76;100.00;103101.34;10495932;28;20052;-82
2023/01/21 07:17:29;;;;;;;81.40;30.70;;;;;;;-1.74;100.00;103112.88;10482428;28;20043;-80
2023/01/21 07:22:29;;;;;;;85.27;34.37;;;;;;;-1.56;100.00;103124.97;10486928;28;20043;-72
2023/01/21 07:27:30;;;;;;;83.43;32.40;;;;;;;-1.35;100.00;103135.09;10488846;28;20047;-82
2023/01/21 07:32:30;;;;;;;82.77;32.23;;;;;;;-1.18;100.00;103155.38;10505058;28;20036;-82
2023/01/21 07:37:31;;;;;;;90.77;33.60;;;;;;;-1.06;100.00;103159.81;10503897;28;20028;-82
2023/01/21 07:42:32;;;;;;;96.57;34.60;;;;;;;-0.96;100.00;103159.94;10501709;28;20032;-81
2023/01/21 07:47:32;;;;;;;90.13;34.47;;;;;;;-0.87;100.00;103170.03;10502419;28;20041;-81
2023/01/21 07:52:32;;;;;;;94.13;34.03;;;;;;;-0.81;100.00;103172.22;10501726;28;20036;-82
2023/01/21 07:57:33;;;;;;;88.67;32.60;;;;;;;-0.75;100.00;103182.56;10503139;28;20044;-81
2023/01/21 08:02:33;;;;;;;89.73;35.53;;;;;;;-0.69;100.00;103192.88;10501878;28;20040;-81
2023/01/21 08:07:34;;;;;;;93.50;33.00;;;;;;;-0.63;100.00;103195.09;10503802;28;20178;-81
2023/01/21 08:12:35;;;;;;;80.28;31.83;;;;;;;-0.57;100.00;103198.31;10501677;28;20041;-77
2023/01/21 08:17:38;;;;;;;82.40;30.57;;;;;;;-0.58;100.00;103199.28;10504075;28;20052;-82
2023/01/21 08:22:39;;;;;;;78.23;30.90;;;;;;;-0.65;100.00;103197.06;10464745;28;20040;-80
2023/01/21 08:27:39;;;;;;;85.87;32.73;;;;;;;-0.66;100.00;103198.06;10488513;28;20055;-81
2023/01/21 08:32:40;;;;;;;80.87;30.93;;;;;;;-0.66;100.00;103200.78;10502648;28;20138;-82
2023/01/21 08:37:41;;;;;;;80.23;31.80;;;;;;;-0.59;100.00;103213.81;10502511;28;20047;-81
2023/01/21 08:42:41;;;;;;;83.30;31.73;;;;;;;-0.51;100.00;103206.78;10499548;28;20040;-82
2023/01/21 08:47:41;;;;;;;78.80;29.83;;;;;;;-0.52;100.00;103217.72;10501778;28;20098;-81
2023/01/21 08:52:42;;;;;;;88.33;33.73;;;;;;;-0.56;100.00;103213.56;10500784;28;20455;-80
2023/01/21 08:57:42;;;;;;;80.90;32.73;;;;;;;-0.62;100.00;103226.59;10500661;28;20511;-81
2023/01/21 09:02:43;;;;;;;74.90;31.43;;;;;;;-0.68;100.00;103227.09;10461913;28;20041;-82
2023/01/21 09:07:44;;;;;;;85.30;33.73;;;;;;;-0.61;100.00;103239.13;10488395;28;20048;-79
2023/01/21 09:12:45;;;;;;;90.03;33.43;;;;;;;-0.39;100.00;103240.13;10467246;28;20045;-80
2023/01/21 09:17:45;;;;;;;84.87;33.83;;;;;;;-0.17;100.00;103246.50;10458948;28;20507;-80
2023/01/21 09:22:45;;;;;;;83.80;32.73;;;;;;;-0.02;100.00;103243.41;10453904;28;20037;-79
2023/01/21 09:27:46;;;;;;;89.13;33.57;;;;;;;0.28;100.00;103259.94;10472171;28;20044;-79
2023/01/21 09:32:46;;;;;;;81.63;33.70;;;;;;;0.45;100.00;103264.81;10499947;28;20079;-78
2023/01/21 09:37:47;;;;;;;84.07;36.07;;;;;;;0.56;100.00;103267.50;10500518;28;20048;-78
2023/01/21 09:42:47;;;;;;;77.93;33.20;;;;;;;0.72;100.00;103275.16;10446057;28;20082;-78
2023/01/21 09:47:48;;;;;;;66.00;29.37;;;;;;;0.84;100.00;103278.69;10494034;28;20047;-78
2023/01/21 09:52:53;;;;;;;70.30;31.60;;;;;;;1.00;100.00;103283.66;10484033;28;20088;-74
2023/01/21 09:58:18;;;;;;;59.13;28.80;;;;;;;1.12;100.00;103287.19;10478525;28;20037;-77
2023/01/21 10:03:40;;;;;;;60.67;30.10;;;;;;;1.21;100.00;103286.38;10476252;28;20135;-77
2023/01/21 10:08:44;;;;;;;59.40;28.33;;;;;;;1.26;100.00;103284.16;10471325;28;20040;-78
2023/01/21 10:14:12;;;;;;;52.60;26.67;;;;;;;1.34;100.00;103280.75;10476281;28;20120;-78
2023/01/21 10:19:16;;;;;;;49.00;26.70;;;;;;;1.52;100.00;103291.84;10497857;28;20054;-77
2023/01/21 10:24:20;;;;;;;45.70;22.60;;;;;;;1.68;100.00;103283.22;10480164;28;20079;-77
2023/01/21 10:29:23;;;;;;;46.22;25.20;;;;;;;1.87;100.00;103277.84;10467252;28;20040;-77
2023/01/21 10:34:24;;;;;;;38.28;21.60;;;;;;;1.96;100.00;103281.59;10463016;28;20033;-77
2023/01/21 10:39:39;;;;;;;40.83;22.17;;;;;;;2.08;100.00;103285.06;10497819;28;20059;-77
2023/01/21 10:45:07;;;;;;;40.78;22.27;;;;;;;2.10;100.00;103278.47;10498198;28;20496;-77
2023/01/21 10:50:19;;;;;;;37.80;21.38;;;;;;;2.16;100.00;103275.19;10495708;28;20043;-78
2023/01/21 10:55:28;;;;;;;38.35;19.70;;;;;;;2.28;100.00;103275.09;10489697;28;20397;-77
2023/01/21 11:00:35;;;;;;;34.33;20.25;;;;;;;2.38;100.00;103265.09;10461132;28;20040;-77
2023/01/21 11:05:36;;;;;;;30.23;18.98;;;;;;;2.57;100.00;103275.13;10459291;28;20504;-77
2023/01/21 11:10:36;;;;;;;27.02;16.35;;;;;;;2.56;100.00;103276.13;10487714;28;20046;-77
2023/01/21 11:15:37;;;;;;;30.63;17.05;;;;;;;2.50;100.00;103263.97;10487239;28;20040;-77
2023/01/21 11:20:40;;;;;;;29.02;15.88;;;;;;;2.53;100.00;103273.69;10481085;28;20033;-77
2023/01/21 11:25:41;;;;;;;24.23;13.33;;;;;;;2.78;100.00;103288.59;10428363;28;20453;-78
2023/01/21 11:30:41;;;;;;;23.75;14.63;;;;;;;3.02;100.00;103280.84;10462841;28;20037;-77
2023/01/21 11:35:42;;;;;;;21.85;13.07;;;;;;;3.06;100.00;103272.38;10463282;28;20029;-77
2023/01/21 11:40:42;;;;;;;19.52;11.68;;;;;;;3.10;100.00;103266.50;10495998;28;20060;-77
2023/01/21 11:45:42;;;;;;;18.95;11.90;;;;;;;3.38;100.00;103275.59;10480424;28;20067;-78
2023/01/21 11:50:43;;;;;;;16.30;10.93;;;;;;;3.49;100.00;103276.44;10474406;28;20041;-77
2023/01/21 11:55:49;;;;;;;21.33;14.05;;;;;;;4.01;100.00;103282.22;10460867;28;20040;-78
2023/01/21 12:00:51;;;;;;;20.05;12.38;;;;;;;4.38;100.00;103278.56;10467865;28;20036;-77
2023/01/21 12:05:52;;;;;;;18.05;11.68;;;;;;;4.21;100.00;103281.09;10465348;28;20045;-77
2023/01/21 12:10:54;;;;;;;19.90;13.65;;;;;;;3.97;100.00;103265.34;10489496;28;20050;-78
2023/01/21 12:16:14;;;;;;;17.17;11.00;;;;;;;4.05;100.00;103278.19;10460065;28;20058;-78
2023/01/21 12:21:48;;;;;;;15.98;10.23;;;;;;;4.10;100.00;103280.47;10479643;28;20096;-78
2023/01/21 12:27:03;;;;;;;12.50;8.45;;;;;;;3.92;100.00;103264.06;10478683;28;20448;-78
2023/01/21 12:32:44;;;;;;;14.27;8.43;;;;;;;3.74;100.00;103264.00;10461491;28;20051;-78
2023/01/21 12:37:50;;;;;;;12.30;7.88;;;;;;;3.46;100.00;103263.13;10445123;28;20037;-77
2023/01/21 12:42:53;;;;;;;10.73;5.87;;;;;;;3.65;100.00;103265.75;10475990;28;20056;-77
2023/01/21 12:47:56;;;;;;;13.13;8.43;;;;;;;3.72;100.00;103264.16;10460815;28;20287;-78
2023/01/21 12:53:43;;;;;;;13.32;8.30;;;;;;;3.83;100.00;103265.84;10455982;28;20036;-78
2023/01/21 12:58:48;;;;;;;11.13;6.80;;;;;;;3.90;100.00;103252.44;10346032;28;20042;-77
2023/01/21 13:03:58;;;;;;;11.20;7.30;;;;;;;4.40;100.00;103254.72;10468207;28;20055;-80
2023/01/21 13:09:13;;;;;;;9.55;6.60;;;;;;;4.93;100.00;103240.19;10499644;28;20059;-78
2023/01/21 13:14:35;;;;;;;8.18;6.05;;;;;;;5.57;100.00;103237.19;10501443;28;20033;-77
2023/01/21 13:19:35;;;;;;;7.45;4.88;;;;;;;6.24;100.00;103219.00;10499599;28;20041;-78
2023/01/21 13:24:36;;;;;;;6.60;4.97;;;;;;;6.98;100.00;103219.00;10500825;28;20173;-77
2023/01/21 13:29:47;;;;;;;5.38;4.05;;;;;;;7.57;100.00;103205.00;10473054;28;20546;-78
2023/01/21 13:35:07;;;;;;;7.38;4.22;;;;;;;8.23;100.00;103207.41;10475909;28;20033;-78
2023/01/21 13:40:21;;;;;;;5.20;3.17;;;;;;;7.78;100.00;103190.69;10475391;28;20116;-78
2023/01/21 13:45:27;;;;;;;5.13;3.35;;;;;;;7.58;100.00;103205.84;10472769;28;20124;-85
2023/01/21 13:50:47;;;;;;;5.53;3.45;;;;;;;6.80;100.00;103215.59;10470718;28;20062;-78
2023/01/21 13:56:11;;;;;;;8.18;3.80;;;;;;;5.58;100.00;103231.56;10471938;28;20040;-78
2023/01/21 14:01:25;;;;;;;5.20;4.05;;;;;;;4.93;100.00;103248.38;10460012;28;20045;-74
2023/01/21 14:06:41;;;;;;;6.22;4.25;;;;;;;4.67;100.00;103261.09;10475222;28;20044;-73
2023/01/21 14:11:48;;;;;;;6.45;4.45;;;;;;;4.58;100.00;103268.38;10489033;28;20043;-78
2023/01/21 14:16:49;;;;;;;5.57;4.45;;;;;;;4.44;100.00;103272.47;10474382;28;20044;-78
2023/01/21 14:21:52;;;;;;;5.78;4.07;;;;;;;4.23;100.00;103276.34;10474072;28;20045;-78
2023/01/21 14:27:04;;;;;;;5.57;4.13;;;;;;;4.12;100.00;103278.44;10471841;28;20208;-77
2023/01/21 14:32:09;;;;;;;6.18;4.60;;;;;;;4.18;100.00;103284.16;10476033;28;20089;-77
2023/01/21 14:37:12;;;;;;;5.63;4.25;;;;;;;4.60;100.00;103275.38;10451113;28;20106;-77
2023/01/21 14:42:17;;;;;;;5.57;4.93;;;;;;;4.91;100.00;103266.78;10472006;28;20156;-78
2023/01/21 14:47:23;;;;;;;4.68;4.07;;;;;;;5.04;100.00;103286.34;10464539;28;20120;-78
2023/01/21 14:52:39;;;;;;;6.13;4.60;;;;;;;4.92;100.00;103286.75;10458986;28;20045;-77
2023/01/21 14:57:39;;;;;;;8.35;5.25;;;;;;;4.25;100.00;103296.13;10443398;28;20040;-77
2023/01/21 15:02:44;;;;;;;7.18;6.03;;;;;;;3.96;100.00;103306.34;10469219;28;20044;-77
2023/01/21 15:07:46;;;;;;;6.65;5.65;;;;;;;3.68;100.00;103313.63;10461274;28;20049;-77
2023/01/21 15:12:51;;;;;;;8.45;6.05;;;;;;;3.37;100.00;103317.47;10472240;28;20090;-78
2023/01/21 15:17:56;;;;;;;9.45;5.80;;;;;;;3.12;100.00;103323.50;10474648;28;20044;-77
2023/01/21 15:23:25;;;;;;;7.95;6.75;;;;;;;2.98;100.00;103328.41;10475268;28;20049;-77
2023/01/21 15:28:44;;;;;;;9.90;6.07;;;;;;;2.84;100.00;103336.97;10450811;28;20029;-77
2023/01/21 15:33:58;;;;;;;9.98;6.35;;;;;;;2.66;100.00;103328.66;10472442;28;20037;-77
2023/01/21 15:39:01;;;;;;;8.40;7.18;;;;;;;2.56;100.00;103331.38;10442294;28;20059;-77
2023/01/21 15:44:05;;;;;;;9.25;7.95;;;;;;;2.54;100.00;103340.66;10469400;28;20049;-77
2023/01/21 15:49:27;;;;;;;15.90;7.95;;;;;;;2.50;100.00;103358.25;10469359;28;20052;-78
2023/01/21 15:54:49;;;;;;;9.77;7.88;;;;;;;2.43;100.00;103360.69;10466996;28;20037;-77
2023/01/21 16:00:14;;;;;;;11.88;8.18;;;;;;;2.31;100.00;103361.78;10462604;28;20041;-70
2023/01/21 16:05:29;;;;;;;10.37;7.17;;;;;;;2.06;100.00;103342.25;10461577;28;20041;-77
2023/01/21 16:10:33;;;;;;;10.03;8.10;;;;;;;1.94;100.00;103371.41;10457222;28;20052;-78
2023/01/21 16:15:37;;;;;;;12.75;7.30;;;;;;;1.65;100.00;103371.22;10469633;28;20045;-80
2023/01/21 16:20:41;;;;;;;11.63;8.05;;;;;;;1.25;100.00;103355.69;10466037;28;20036;-78
2023/01/21 16:25:46;;;;;;;12.05;8.45;;;;;;;1.00;100.00;103381.34;10467486;28;20037;-80
2023/01/21 16:30:54;;;;;;;14.85;9.35;;;;;;;0.73;100.00;103381.78;10461439;28;20045;-75
2023/01/21 16:35:56;;;;;;;17.80;10.77;;;;;;;0.49;100.00;103381.97;10460928;28;20041;-79
2023/01/21 16:41:05;;;;;;;15.95;10.55;;;;;;;0.28;100.00;103373.75;10424820;28;20044;-78
2023/01/21 16:46:16;;;;;;;15.80;11.00;;;;;;;0.08;100.00;103378.91;10475129;28;20098;-78
2023/01/21 16:51:22;;;;;;;15.30;10.98;;;;;;;0.04;100.00;103382.84;10455824;28;20037;-78
2023/01/21 16:56:23;;;;;;;;;;;;;;;-0.01;100.00;103369.69;10459094;28;20096;-77
2023/01/21 17:01:24;;;;;;;17.67;11.20;;;;;;;-0.01;100.00;103379.66;10462243;28;19917;-77
2023/01/21 17:06:27;;;;;;;20.85;13.32;;;;;;;-0.05;100.00;103381.75;10443128;28;20053;-78
2023/01/21 17:11:30;;;;;;;20.43;13.60;;;;;;;-0.17;100.00;103388.13;10451947;28;20797;-77
2023/01/21 17:16:33;;;;;;;22.30;13.67;;;;;;;-0.24;100.00;103386.91;10456400;28;20540;-78
2023/01/21 17:21:36;;;;;;;23.13;14.70;;;;;;;-0.27;100.00;103396.16;10461788;28;20036;-78
2023/01/21 17:26:38;;;;;;;28.23;15.70;;;;;;;-0.32;100.00;103397.50;10497936;28;20480;-78
2023/01/21 17:31:41;;;;;;;23.47;14.73;;;;;;;-0.39;100.00;103402.53;10498507;28;20040;-77
2023/01/21 17:36:43;;;;;;;25.07;15.10;;;;;;;-0.66;100.00;103368.50;10499680;28;20033;-77
2023/01/21 17:41:43;;;;;;;24.77;15.00;;;;;;;-0.69;100.00;103400.34;10497468;28;20058;-78
2023/01/21 17:46:51;;;;;;;28.33;16.57;;;;;;;-0.87;100.00;103398.06;10495610;28;20044;-78
2023/01/21 17:51:52;;;;;;;29.00;16.90;;;;;;;-1.08;100.00;103400.53;10471778;28;20137;-78
2023/01/21 17:56:54;;;;;;;29.63;16.97;;;;;;;-1.14;100.00;103403.69;10496987;28;20460;-78
2023/01/21 18:01:55;;;;;;;30.57;17.90;;;;;;;-1.26;100.00;103404.63;10496978;28;20055;-79
2023/01/21 18:06:55;;;;;;;33.37;18.47;;;;;;;-1.45;100.00;103399.72;10496434;28;20063;-79
2023/01/21 18:11:56;;;;;;;34.03;18.93;;;;;;;-1.47;100.00;103412.47;10478998;28;20068;-78
2023/01/21 18:16:57;;;;;;;38.10;21.43;;;;;;;-1.54;100.00;103398.56;10437556;28;20045;-79
2023/01/21 18:21:58;;;;;;;34.90;19.47;;;;;;;-1.55;100.00;103413.06;10455347;28;20052;-78
2023/01/21 18:26:59;;;;;;;45.07;22.30;;;;;;;-1.96;100.00;103349.41;10467212;28;20437;-78
2023/01/21 18:31:59;;;;;;;40.67;21.40;;;;;;;-1.59;100.00;103419.66;10457882;28;20040;-79
2023/01/21 18:37:01;;;;;;;41.63;21.77;;;;;;;-1.63;100.00;103421.72;10453715;28;20033;-79
2023/01/21 18:42:01;;;;;;;42.33;22.07;;;;;;;-1.70;100.00;103422.25;10460459;28;20052;-79
2023/01/21 18:47:08;;;;;;;41.23;22.03;;;;;;;-1.93;100.00;103397.78;10464415;28;20047;-80
2023/01/21 18:52:09;;;;;;;40.57;23.27;;;;;;;-1.89;100.00;103422.72;10452178;28;20083;-79
2023/01/21 18:57:17;;;;;;;44.07;23.93;;;;;;;-1.96;100.00;103430.41;10485283;28;20032;-79
2023/01/21 19:02:18;;;;;;;56.63;26.63;;;;;;;-1.95;100.00;103420.47;10468655;28;20048;-79
2023/01/21 19:07:20;;;;;;;59.10;28.30;;;;;;;-1.94;100.00;103428.47;10450957;28;20029;-78
2023/01/21 19:12:23;;;;;;;59.03;28.53;;;;;;;-1.87;100.00;103434.28;10440938;28;20069;-79
2023/01/21 19:17:27;;;;;;;67.23;31.17;;;;;;;-1.83;100.00;103433.94;10473434;28;20409;-78
2023/01/21 19:22:28;;;;;;;61.43;30.67;;;;;;;-1.89;100.00;103442.47;10464376;28;20029;-79
2023/01/21 19:27:31;;;;;;;61.07;31.77;;;;;;;-1.93;100.00;103438.28;10467580;28;20063;-78
2023/01/21 19:32:31;;;;;;;56.97;30.13;;;;;;;-2.03;100.00;103445.28;10450797;28;20141;-78
2023/01/21 19:37:32;;;;;;;57.53;30.53;;;;;;;-2.10;100.00;103433.22;10483115;28;20122;-78
2023/01/21 19:42:32;;;;;;;70.03;31.97;;;;;;;-2.28;100.00;103414.63;10450186;28;20033;-78
2023/01/21 19:47:33;;;;;;;60.87;28.27;;;;;;;-3.30;100.00;103263.53;10467019;28;20040;-78
2023/01/21 19:52:33;;;;;;;72.53;33.73;;;;;;;-2.26;100.00;103418.06;10440344;28;20041;-78
2023/01/21 19:57:34;;;;;;;78.67;36.23;;;;;;;-2.27;100.00;103416.38;10459601;28;20041;-78
2023/01/21 20:02:34;;;;;;;76.60;36.97;;;;;;;-2.26;100.00;103433.41;10457362;28;20037;-78
2023/01/21 20:07:35;;;;;;;74.90;36.60;;;;;;;-2.27;100.00;103423.59;10458207;28;20076;-78
2023/01/21 20:12:35;;;;;;;83.53;37.27;;;;;;;-2.17;100.00;103438.19;10467069;28;20108;-74
2023/01/21 20:17:36;;;;;;;86.73;36.60;;;;;;;-2.03;100.00;103429.09;10457823;28;20060;-79
2023/01/21 20:22:37;;;;;;;85.60;39.67;;;;;;;-1.87;100.00;103437.84;10466368;28;20029;-78
2023/01/21 20:27:37;;;;;;;68.63;33.87;;;;;;;-1.67;100.00;103431.00;10459444;28;20048;-79
2023/01/21 20:32:38;;;;;;;77.07;34.60;;;;;;;-1.50;100.00;103437.03;10456006;28;20037;-81
2023/01/21 20:37:39;;;;;;;85.13;34.27;;;;;;;-1.34;100.00;103443.03;10457488;28;20037;-81
2023/01/21 20:42:40;;;;;;;80.97;34.67;;;;;;;-1.17;100.00;103449.03;10455034;28;20044;-80
2023/01/21 20:47:41;;;;;;;85.83;34.93;;;;;;;-1.07;100.00;103444.69;10464169;28;20037;-80
2023/01/21 20:52:42;;;;;;;77.03;35.47;;;;;;;-0.86;100.00;103458.44;10445532;28;20509;-80
2023/01/21 20:57:42;;;;;;;80.80;35.17;;;;;;;-0.80;100.00;103452.56;10457309;28;20089;-80
2023/01/21 21:02:43;;;;;;;76.53;33.33;;;;;;;-0.88;100.00;103460.38;10466291;28;20509;-80
2023/01/21 21:07:43;;;;;;;73.50;31.83;;;;;;;-1.12;100.00;103447.72;10437744;28;20061;-79
2023/01/21 21:12:44;;;;;;;71.50;31.80;;;;;;;-1.22;100.00;103458.34;10447737;28;20048;-72
2023/01/21 21:17:45;;;;;;;69.47;32.17;;;;;;;-1.31;100.00;103448.22;10499016;28;20066;-81
2023/01/21 21:22:46;;;;;;;82.87;41.23;;;;;;;-1.32;100.00;103449.19;10498988;28;20029;-80
2023/01/21 21:27:46;;;;;;;106.53;51.97;;;;;;;-1.33;100.00;103439.34;10483425;28;20037;-84
2023/01/21 21:32:47;;;;;;;72.73;35.00;;;;;;;-1.27;100.00;103438.03;10469669;28;20077;-79
2023/01/21 21:37:48;;;;;;;61.93;28.90;;;;;;;-1.28;100.00;103439.00;10436609;28;20040;-79
2023/01/21 21:53:35;;;;;;;55.83;27.40;;;;;;;-1.46;100.00;103434.00;10469395;28;20070;-80
2023/01/21 21:58:36;;;;;;;49.33;26.17;;;;;;;-1.42;100.00;103435.50;10473757;28;20037;-86
2023/01/21 22:03:36;;;;;;;47.33;25.43;;;;;;;-1.37;100.00;103431.59;10476419;28;20029;-85
2023/01/21 22:08:38;;;;;;;50.30;22.93;;;;;;;-1.39;100.00;103422.72;10465236;28;20426;-82
2023/01/21 22:13:39;;;;;;;48.60;26.57;;;;;;;-1.30;100.00;103428.31;10463068;28;20102;-82
2023/01/21 22:18:40;;;;;;;40.97;21.97;;;;;;;-1.20;100.00;103428.50;10460174;28;20029;-81
2023/01/21 22:23:40;;;;;;;37.20;20.63;;;;;;;-1.22;100.00;103411.53;10436341;28;20033;-82
2023/01/21 22:28:41;;;;;;;43.77;21.60;;;;;;;-1.11;100.00;103419.72;10434485;28;20052;-79
2023/01/21 22:33:42;;;;;;;41.87;23.70;;;;;;;-1.07;100.00;103421.22;10442790;28;20185;-82
2023/01/21 22:38:43;;;;;;;41.00;21.63;;;;;;;-1.10;100.00;103432.22;10453656;28;20040;-83
2023/01/21 22:43:43;;;;;;;36.03;19.73;;;;;;;-0.98;100.00;103437.72;10456074;28;20088;-82
2023/01/21 22:48:45;;;;;;;34.63;17.43;;;;;;;-0.79;100.00;103427.22;10443592;28;20519;-81
2023/01/21 22:53:46;;;;;;;39.43;18.03;;;;;;;-0.74;100.00;103433.16;10500093;28;20124;-81